Аэропорт: Курск-Восточный . Курск

ICAO: UUOK

METAR:
2018/09/23 11:00
UUOK 231100Z 31005MPS 9999 OVC029 11/07 Q1015 R30/190060 NOSIG RMK QFE742/0990
METAR:
Информация по данной станции не доступна